Time;durP1;ratioP1;P1;durP2;ratioP2;P2;SDS_P1;SDS_P2;PMS_P1;PMS_P2;Temp;Humidity;BMP_temperature;BMP_pressure;BME280_temperature;BME280_humidity;BME280_pressure;Samples;Min_cycle;Max_cycle;Signal;HPM_P1;HPM_P2
2023/03/01 00:01:11;;;;;;;1.42;1.33;;;;;;;;;;5088777;28;20032;-85
2023/03/01 00:03:37;;;;;;;2.78;1.15;;;;;;;;;;5091958;28;20425;-84
2023/03/01 00:06:03;;;;;;;2.08;1.27;;;;;;;;;;5081061;28;20031;-86
2023/03/01 00:08:29;;;;;;;1.63;1.48;;;;;;;;;;5084872;28;20087;-85
2023/03/01 00:11:07;;;;;;;2.90;1.63;;;;;;;;;;5106697;28;20032;-85
2023/03/01 00:13:33;;;;;;;5.30;1.90;;;;;;;;;;5084571;28;20040;-85
2023/03/01 00:16:01;;;;;;;2.15;1.38;;;;;;;;;;5085766;28;20032;-85
2023/03/01 00:18:26;;;;;;;1.92;1.50;;;;;;;;;;5083775;28;21778;-85
2023/03/01 00:20:55;;;;;;;2.20;1.40;;;;;;;;;;5091323;28;20039;-87
2023/03/01 00:23:22;;;;;;;2.22;2.03;;;;;;;;;;5089432;28;20487;-86
2023/03/01 00:25:48;;;;;;;4.47;2.47;;;;;;;;;;5088544;28;20568;-85
2023/03/01 00:28:13;;;;;;;3.53;2.33;;;;;;;;;;5109159;28;20133;-85
2023/03/01 00:30:39;;;;;;;2.30;1.88;;;;;;;;;;5086838;28;20480;-86
2023/03/01 00:33:04;;;;;;;5.35;2.85;;;;;;;;;;5087175;28;20058;-85
2023/03/01 00:35:32;;;;;;;3.50;2.15;;;;;;;;;;5088693;28;20031;-85
2023/03/01 00:37:57;;;;;;;3.22;2.67;;;;;;;;;;5088740;28;20036;-86
2023/03/01 00:40:31;;;;;;;4.22;2.42;;;;;;;;;;5090881;28;20069;-85
2023/03/01 00:42:57;;;;;;;5.18;2.40;;;;;;;;;;5083440;28;20027;-86
2023/03/01 00:45:22;;;;;;;2.50;1.73;;;;;;;;;;5087634;28;20036;-85
2023/03/01 00:47:49;;;;;;;1.95;1.38;;;;;;;;;;5080647;28;20028;-85
2023/03/01 00:50:15;;;;;;;1.25;1.15;;;;;;;;;;5080715;28;20054;-85
2023/03/01 00:52:40;;;;;;;1.25;0.90;;;;;;;;;;5085476;28;20036;-84
2023/03/01 00:55:06;;;;;;;0.40;0.40;;;;;;;;;;5084092;28;20069;-83
2023/03/01 00:57:33;;;;;;;0.47;0.47;;;;;;;;;;5083152;28;20037;-84
2023/03/01 00:59:59;;;;;;;1.00;0.75;;;;;;;;;;5078830;28;20444;-84
2023/03/01 01:02:24;;;;;;;0.47;0.47;;;;;;;;;;5083892;28;20052;-82
2023/03/01 01:04:50;;;;;;;0.60;0.60;;;;;;;;;;5083485;28;20035;-83
2023/03/01 01:07:16;;;;;;;0.80;0.55;;;;;;;;;;5083806;28;20488;-84
2023/03/01 01:09:41;;;;;;;1.17;0.90;;;;;;;;;;5088401;28;20032;-84
2023/03/01 01:12:07;;;;;;;0.63;0.60;;;;;;;;;;5091317;28;20039;-84
2023/03/01 01:14:33;;;;;;;0.45;0.40;;;;;;;;;;5090906;28;20028;-84
2023/03/01 01:16:58;;;;;;;0.47;0.47;;;;;;;;;;5081812;28;20031;-83
2023/03/01 01:19:25;;;;;;;0.73;0.45;;;;;;;;;;5082355;28;20024;-84
2023/03/01 01:21:52;;;;;;;1.42;0.50;;;;;;;;;;5080498;28;20032;-83
2023/03/01 01:24:18;;;;;;;0.50;0.50;;;;;;;;;;5080842;28;20024;-84
2023/03/01 01:26:44;;;;;;;1.02;0.75;;;;;;;;;;5084905;28;20027;-83
2023/03/01 01:29:10;;;;;;;0.30;0.30;;;;;;;;;;5084601;28;20050;-82
2023/03/01 01:31:37;;;;;;;0.73;0.70;;;;;;;;;;5085702;28;20472;-83
2023/03/01 01:34:05;;;;;;;0.82;0.70;;;;;;;;;;5083981;28;20036;-82
2023/03/01 01:36:31;;;;;;;0.88;0.80;;;;;;;;;;5087657;28;20020;-82
2023/03/01 01:38:56;;;;;;;0.75;0.50;;;;;;;;;;5086150;28;20499;-82
2023/03/01 01:41:23;;;;;;;1.55;0.70;;;;;;;;;;5089183;28;20063;-83
2023/03/01 01:44:08;;;;;;;1.00;0.77;;;;;;;;;;5095910;28;20046;-83
2023/03/01 01:46:37;;;;;;;0.55;0.55;;;;;;;;;;5086650;28;20032;-82
2023/03/01 01:49:15;;;;;;;0.85;0.45;;;;;;;;;;5108409;28;20051;-82
2023/03/01 01:51:43;;;;;;;3.35;1.73;;;;;;;;;;5093709;28;20028;-83
2023/03/01 01:54:13;;;;;;;1.48;0.73;;;;;;;;;;5087164;28;20051;-82
2023/03/01 01:56:44;;;;;;;1.42;1.25;;;;;;;;;;5083774;28;20487;-83
2023/03/01 01:59:10;;;;;;;1.10;1.00;;;;;;;;;;5081158;28;20033;-84
2023/03/01 02:01:36;;;;;;;0.75;0.63;;;;;;;;;;5086208;28;20415;-83
2023/03/01 02:04:01;;;;;;;1.45;0.80;;;;;;;;;;5090126;28;20107;-83
2023/03/01 02:06:34;;;;;;;0.85;0.68;;;;;;;;;;5093483;28;20451;-84
2023/03/01 02:09:04;;;;;;;0.73;0.60;;;;;;;;;;5108887;28;20024;-83
2023/03/01 02:11:32;;;;;;;1.70;1.08;;;;;;;;;;5086042;28;20086;-84
2023/03/01 02:13:57;;;;;;;1.00;0.60;;;;;;;;;;5090605;28;20031;-84
2023/03/01 02:16:22;;;;;;;1.65;0.90;;;;;;;;;;5081064;28;20111;-84
2023/03/01 02:18:49;;;;;;;0.45;0.45;;;;;;;;;;5081251;28;20024;-83
2023/03/01 02:21:37;;;;;;;1.25;0.95;;;;;;;;;;5093462;28;20020;-82
2023/03/01 02:24:18;;;;;;;0.38;0.38;;;;;;;;;;5083874;28;20538;-83
2023/03/01 02:26:49;;;;;;;0.98;0.80;;;;;;;;;;5091855;28;20797;-83
2023/03/01 02:29:15;;;;;;;0.45;0.45;;;;;;;;;;5084142;28;20472;-83
2023/03/01 02:31:41;;;;;;;1.23;0.98;;;;;;;;;;5083879;28;20052;-83
2023/03/01 02:34:09;;;;;;;1.75;0.75;;;;;;;;;;5089046;28;20537;-81
2023/03/01 02:36:37;;;;;;;2.67;1.70;;;;;;;;;;5089389;28;20040;-82
2023/03/01 02:39:06;;;;;;;1.05;0.80;;;;;;;;;;5087445;28;20035;-81
2023/03/01 02:41:36;;;;;;;1.00;0.68;;;;;;;;;;5082920;28;20481;-82
2023/03/01 02:44:03;;;;;;;1.27;0.90;;;;;;;;;;5087564;28;20524;-83
2023/03/01 02:46:29;;;;;;;0.47;0.47;;;;;;;;;;5084971;28;20036;-82
2023/03/01 02:48:58;;;;;;;1.20;0.80;;;;;;;;;;5092640;28;20429;-82
2023/03/01 02:51:34;;;;;;;3.22;1.08;;;;;;;;;;5089985;28;20107;-82
2023/03/01 02:54:08;;;;;;;0.50;0.50;;;;;;;;;;5085316;28;20028;-82
2023/03/01 02:56:34;;;;;;;0.45;0.45;;;;;;;;;;5089123;28;20081;-83
2023/03/01 02:59:00;;;;;;;0.55;0.55;;;;;;;;;;5085853;28;20426;-82
2023/03/01 03:01:36;;;;;;;1.00;0.90;;;;;;;;;;5094394;28;20023;-82
2023/03/01 03:04:03;;;;;;;0.85;0.80;;;;;;;;;;5089296;28;20032;-82
2023/03/01 03:06:29;;;;;;;1.42;1.08;;;;;;;;;;5091481;28;20028;-82
2023/03/01 03:08:54;;;;;;;0.73;0.68;;;;;;;;;;5088741;28;20042;-83
2023/03/01 03:11:20;;;;;;;1.10;1.00;;;;;;;;;;5084284;28;20027;-82
2023/03/01 03:13:47;;;;;;;0.98;0.63;;;;;;;;;;5082431;28;20028;-81
2023/03/01 03:16:13;;;;;;;1.25;0.95;;;;;;;;;;5086625;28;20099;-81
2023/03/01 03:18:39;;;;;;;1.00;0.73;;;;;;;;;;5085034;28;20075;-82
2023/03/01 03:21:11;;;;;;;2.25;1.50;;;;;;;;;;5084388;28;20468;-84
2023/03/01 03:23:37;;;;;;;0.93;0.93;;;;;;;;;;5087685;28;20048;-81
2023/03/01 03:26:04;;;;;;;0.80;0.75;;;;;;;;;;5089510;28;20070;-82
2023/03/01 03:28:30;;;;;;;1.00;0.90;;;;;;;;;;5083202;28;20024;-82
2023/03/01 03:30:56;;;;;;;0.60;0.60;;;;;;;;;;5110408;27;20060;-82
2023/03/01 03:33:22;;;;;;;0.52;0.50;;;;;;;;;;5084401;28;20511;-82
2023/03/01 03:35:49;;;;;;;0.52;0.52;;;;;;;;;;5103824;28;20035;-82
2023/03/01 03:38:17;;;;;;;0.65;0.65;;;;;;;;;;5083903;28;20028;-82
2023/03/01 03:40:46;;;;;;;0.90;0.82;;;;;;;;;;5084632;28;20103;-81
2023/03/01 03:43:20;;;;;;;2.63;1.90;;;;;;;;;;5080462;28;20028;-83
2023/03/01 03:46:23;;;;;;;1.02;0.85;;;;;;;;;;5085319;28;20075;-82
2023/03/01 03:48:49;;;;;;;1.13;0.93;;;;;;;;;;5081834;28;20174;-82
2023/03/01 03:51:16;;;;;;;2.35;1.38;;;;;;;;;;5090683;28;20039;-81
2023/03/01 03:53:42;;;;;;;1.60;1.35;;;;;;;;;;5086590;28;20054;-82
2023/03/01 03:56:08;;;;;;;1.58;1.02;;;;;;;;;;5083132;28;20038;-81
2023/03/01 03:58:52;;;;;;;0.73;0.70;;;;;;;;;;5085413;28;20020;-83
2023/03/01 04:01:36;;;;;;;0.90;0.82;;;;;;;;;;5079858;28;20483;-83
2023/03/01 04:04:03;;;;;;;1.35;1.25;;;;;;;;;;5082483;28;20020;-82
2023/03/01 04:06:38;;;;;;;1.35;1.15;;;;;;;;;;5085397;28;20040;-83
2023/03/01 04:09:03;;;;;;;1.15;0.95;;;;;;;;;;5081083;28;20035;-83
2023/03/01 04:11:29;;;;;;;2.35;1.45;;;;;;;;;;5108792;28;20032;-82
2023/03/01 04:13:57;;;;;;;1.08;0.88;;;;;;;;;;5084049;28;20035;-82
2023/03/01 04:16:23;;;;;;;1.38;1.13;;;;;;;;;;5083316;28;20498;-82
2023/03/01 04:18:48;;;;;;;1.15;1.00;;;;;;;;;;5084300;28;20080;-82
2023/03/01 04:21:14;;;;;;;1.88;1.75;;;;;;;;;;5088268;28;20034;-82
2023/03/01 04:23:40;;;;;;;1.52;1.10;;;;;;;;;;5084052;28;20075;-83
2023/03/01 04:26:06;;;;;;;3.08;1.85;;;;;;;;;;5086637;28;20627;-85
2023/03/01 04:28:36;;;;;;;2.88;1.27;;;;;;;;;;5079748;28;20028;-84
2023/03/01 04:31:13;;;;;;;2.35;1.33;;;;;;;;;;5087154;28;20123;-85
2023/03/01 04:33:40;;;;;;;0.60;0.60;;;;;;;;;;5079491;28;20024;-83
2023/03/01 04:36:08;;;;;;;0.80;0.55;;;;;;;;;;5090805;28;20528;-83
2023/03/01 04:38:34;;;;;;;1.40;1.00;;;;;;;;;;5082177;28;20092;-83
2023/03/01 04:41:03;;;;;;;0.52;0.52;;;;;;;;;;5090639;28;20459;-83
2023/03/01 04:43:28;;;;;;;1.20;1.10;;;;;;;;;;5081320;28;20031;-85
2023/03/01 04:45:54;;;;;;;1.20;0.85;;;;;;;;;;5084415;28;20369;-84
2023/03/01 04:48:19;;;;;;;0.70;0.43;;;;;;;;;;5088490;28;20028;-84
2023/03/01 04:50:45;;;;;;;1.55;0.95;;;;;;;;;;5108822;28;20115;-84
2023/03/01 04:53:10;;;;;;;1.02;0.73;;;;;;;;;;5081738;28;20693;-85
2023/03/01 04:55:35;;;;;;;2.35;0.90;;;;;;;;;;5085538;28;20028;-85
2023/03/01 04:58:01;;;;;;;3.70;1.27;;;;;;;;;;5083955;28;20059;-84
2023/03/01 05:00:26;;;;;;;1.02;0.93;;;;;;;;;;5087399;28;20035;-85
2023/03/01 05:02:57;;;;;;;1.20;1.00;;;;;;;;;;5086051;28;20099;-86
2023/03/01 05:05:27;;;;;;;1.42;0.93;;;;;;;;;;5094150;28;20032;-85
2023/03/01 05:07:58;;;;;;;1.92;1.30;;;;;;;;;;5096149;28;20076;-85
2023/03/01 05:10:25;;;;;;;1.42;0.80;;;;;;;;;;5087884;28;20036;-85
2023/03/01 05:12:52;;;;;;;1.10;0.90;;;;;;;;;;5088745;28;20028;-84
2023/03/01 05:15:18;;;;;;;1.80;1.25;;;;;;;;;;5086475;28;20024;-83
2023/03/01 05:17:43;;;;;;;1.10;0.80;;;;;;;;;;5088038;28;20032;-83
2023/03/01 05:20:10;;;;;;;1.27;1.10;;;;;;;;;;5088682;28;20472;-85
2023/03/01 05:22:36;;;;;;;0.73;0.70;;;;;;;;;;5085880;28;20027;-86
2023/03/01 05:25:03;;;;;;;0.75;0.75;;;;;;;;;;5093712;28;20062;-85
2023/03/01 05:27:58;;;;;;;;;;;;;;;;;;;;;
2023/03/01 05:30:27;;;;;;;1.20;1.10;;;;;;;;;;5089405;28;20476;-85
2023/03/01 05:32:56;;;;;;;0.73;0.57;;;;;;;;;;5092445;28;20024;-86
2023/03/01 05:35:23;;;;;;;0.68;0.60;;;;;;;;;;5093638;28;20047;-86
2023/03/01 05:37:49;;;;;;;0.47;0.47;;;;;;;;;;5092206;28;20028;-83
2023/03/01 05:40:18;;;;;;;0.40;0.40;;;;;;;;;;5086689;28;20021;-88
2023/03/01 05:42:49;;;;;;;0.85;0.40;;;;;;;;;;5088641;28;20035;-83
2023/03/01 05:45:16;;;;;;;0.40;0.40;;;;;;;;;;5080668;28;20020;-82
2023/03/01 05:47:43;;;;;;;0.20;0.20;;;;;;;;;;5086166;28;20050;-80
2023/03/01 05:50:23;;;;;;;1.30;0.75;;;;;;;;;;5090170;28;20027;-83
2023/03/01 05:52:51;;;;;;;0.17;0.17;;;;;;;;;;5105320;28;20024;-84
2023/03/01 05:55:19;;;;;;;0.93;0.63;;;;;;;;;;5087439;28;20060;-83
2023/03/01 05:57:45;;;;;;;0.47;0.25;;;;;;;;;;5092282;28;20452;-80
2023/03/01 06:00:12;;;;;;;0.47;0.43;;;;;;;;;;5087028;28;20058;-81
2023/03/01 06:02:37;;;;;;;0.38;0.20;;;;;;;;;;5087057;28;20110;-83
2023/03/01 06:05:05;;;;;;;1.00;0.50;;;;;;;;;;5087078;28;20056;-81
2023/03/01 06:07:31;;;;;;;0.68;0.50;;;;;;;;;;5088083;28;20468;-85
2023/03/01 06:09:56;;;;;;;0.30;0.30;;;;;;;;;;5080387;28;20027;-78
2023/03/01 06:12:22;;;;;;;0.60;0.50;;;;;;;;;;5079647;28;21593;-80
2023/03/01 06:14:47;;;;;;;0.70;0.45;;;;;;;;;;5089320;28;20027;-80
2023/03/01 06:17:13;;;;;;;0.65;0.60;;;;;;;;;;5085635;28;20020;-81
2023/03/01 06:19:39;;;;;;;0.30;0.30;;;;;;;;;;5088116;28;20566;-80
2023/03/01 06:22:05;;;;;;;0.85;0.45;;;;;;;;;;5088233;28;20028;-80
2023/03/01 06:24:31;;;;;;;1.08;0.80;;;;;;;;;;5086160;28;20039;-81
2023/03/01 06:26:56;;;;;;;0.40;0.40;;;;;;;;;;5090160;28;20024;-81
2023/03/01 06:29:22;;;;;;;0.20;0.20;;;;;;;;;;5083659;28;20089;-80
2023/03/01 06:31:48;;;;;;;0.70;0.70;;;;;;;;;;5087410;28;20061;-81
2023/03/01 06:34:14;;;;;;;0.32;0.32;;;;;;;;;;5109965;28;20365;-88
2023/03/01 06:36:42;;;;;;;1.45;0.47;;;;;;;;;;5077601;28;20036;-85
2023/03/01 06:39:08;;;;;;;0.40;0.40;;;;;;;;;;5107452;28;20027;-81
2023/03/01 06:41:33;;;;;;;0.55;0.55;;;;;;;;;;5085522;28;20107;-82
2023/03/01 06:43:59;;;;;;;0.40;0.40;;;;;;;;;;5086099;28;20018;-83
2023/03/01 06:46:28;;;;;;;1.05;0.73;;;;;;;;;;5085655;28;20031;-82
2023/03/01 06:48:53;;;;;;;0.55;0.55;;;;;;;;;;5087217;28;20764;-81
2023/03/01 06:51:18;;;;;;;0.35;0.35;;;;;;;;;;5089125;28;20075;-80
2023/03/01 06:53:46;;;;;;;0.47;0.47;;;;;;;;;;5086780;28;20028;-83
2023/03/01 06:56:11;;;;;;;0.80;0.50;;;;;;;;;;5085335;28;20368;-82
2023/03/01 06:58:37;;;;;;;0.60;0.60;;;;;;;;;;5081939;28;20145;-84
2023/03/01 07:01:09;;;;;;;1.23;0.80;;;;;;;;;;5084477;28;20080;-82
2023/03/01 07:03:34;;;;;;;0.65;0.65;;;;;;;;;;5079729;28;20029;-82
2023/03/01 07:06:00;;;;;;;1.95;1.48;;;;;;;;;;5084802;28;20032;-82
2023/03/01 07:08:25;;;;;;;0.70;0.70;;;;;;;;;;5086978;28;20407;-83
2023/03/01 07:10:58;;;;;;;0.40;0.40;;;;;;;;;;5084167;28;20032;-82
2023/03/01 07:13:23;;;;;;;1.77;1.48;;;;;;;;;;5086813;28;20028;-82
2023/03/01 07:15:49;;;;;;;1.00;0.90;;;;;;;;;;5088708;28;20040;-84
2023/03/01 07:18:14;;;;;;;0.57;0.57;;;;;;;;;;5079043;28;20056;-81
2023/03/01 07:20:40;;;;;;;0.35;0.35;;;;;;;;;;5083396;28;20099;-84
2023/03/01 07:23:06;;;;;;;0.50;0.50;;;;;;;;;;5087934;28;20024;-82
2023/03/01 07:25:32;;;;;;;1.23;0.52;;;;;;;;;;5084216;28;20036;-82
2023/03/01 07:27:58;;;;;;;1.35;0.68;;;;;;;;;;5081839;28;20047;-84
2023/03/01 07:30:25;;;;;;;0.68;0.47;;;;;;;;;;5085676;28;20032;-81
2023/03/01 07:32:51;;;;;;;0.82;0.68;;;;;;;;;;5084603;28;20426;-81
2023/03/01 07:35:17;;;;;;;0.68;0.65;;;;;;;;;;5083504;28;20028;-81
2023/03/01 07:37:43;;;;;;;0.80;0.50;;;;;;;;;;5086712;28;20036;-82
2023/03/01 07:40:09;;;;;;;0.98;0.60;;;;;;;;;;5083817;28;20487;-82
2023/03/01 07:42:35;;;;;;;6.88;3.63;;;;;;;;;;5086299;28;20106;-82
2023/03/01 07:45:00;;;;;;;6.57;3.83;;;;;;;;;;5087811;28;20108;-82
2023/03/01 07:47:25;;;;;;;8.95;3.20;;;;;;;;;;5086113;28;20027;-84
2023/03/01 07:49:51;;;;;;;1.75;0.95;;;;;;;;;;5086569;28;20463;-84
2023/03/01 07:52:16;;;;;;;0.63;0.50;;;;;;;;;;5082553;28;20032;-81
2023/03/01 07:54:45;;;;;;;1.20;0.80;;;;;;;;;;5081422;28;20098;-80
2023/03/01 07:57:10;;;;;;;0.80;0.50;;;;;;;;;;5102813;28;20032;-83
2023/03/01 07:59:36;;;;;;;1.05;0.73;;;;;;;;;;5100327;28;20101;-78
2023/03/01 08:02:01;;;;;;;1.95;1.05;;;;;;;;;;5084142;28;20023;-82
2023/03/01 08:04:27;;;;;;;2.17;0.52;;;;;;;;;;5085120;28;20044;-83
2023/03/01 08:06:54;;;;;;;0.38;0.38;;;;;;;;;;5081663;28;20979;-79
2023/03/01 08:09:19;;;;;;;0.32;0.32;;;;;;;;;;5085628;28;20051;-85
2023/03/01 08:11:44;;;;;;;0.52;0.52;;;;;;;;;;5081955;28;20024;-81
2023/03/01 08:14:10;;;;;;;1.02;0.70;;;;;;;;;;5081233;28;20043;-82
2023/03/01 08:16:36;;;;;;;1.40;1.23;;;;;;;;;;5083078;28;20035;-83
2023/03/01 08:19:07;;;;;;;1.17;0.93;;;;;;;;;;5106419;28;20028;-81
2023/03/01 08:21:34;;;;;;;0.88;0.88;;;;;;;;;;5084436;28;20055;-81
2023/03/01 08:24:03;;;;;;;0.68;0.68;;;;;;;;;;5084487;28;20512;-80
2023/03/01 08:26:28;;;;;;;1.85;0.98;;;;;;;;;;5080384;28;20032;-81
2023/03/01 08:28:54;;;;;;;1.60;1.02;;;;;;;;;;5087309;28;20024;-80
2023/03/01 08:31:25;;;;;;;0.93;0.73;;;;;;;;;;5083736;28;20047;-79
2023/03/01 08:33:55;;;;;;;0.85;0.73;;;;;;;;;;5082824;28;20032;-81
2023/03/01 08:36:25;;;;;;;1.98;0.95;;;;;;;;;;5084336;28;20512;-80
2023/03/01 08:38:51;;;;;;;1.42;1.05;;;;;;;;;;5085176;28;20158;-84
2023/03/01 08:41:17;;;;;;;0.50;0.50;;;;;;;;;;5080035;28;20046;-82
2023/03/01 08:43:42;;;;;;;1.27;0.90;;;;;;;;;;5086804;28;20028;-84
2023/03/01 08:46:08;;;;;;;1.08;0.75;;;;;;;;;;5083041;28;20149;-85
2023/03/01 08:48:33;;;;;;;1.00;0.70;;;;;;;;;;5085815;28;20094;-83
2023/03/01 08:51:16;;;;;;;0.70;0.70;;;;;;;;;;5089022;28;20031;-82
2023/03/01 08:53:42;;;;;;;2.38;0.95;;;;;;;;;;5085460;28;20085;-85
2023/03/01 08:56:08;;;;;;;2.25;0.88;;;;;;;;;;5079148;28;20032;-84
2023/03/01 08:58:34;;;;;;;1.08;0.85;;;;;;;;;;5079257;28;20025;-82
2023/03/01 09:01:00;;;;;;;1.30;1.10;;;;;;;;;;5086133;28;20028;-85
2023/03/01 09:03:26;;;;;;;3.25;1.27;;;;;;;;;;5083546;28;20519;-87
2023/03/01 09:05:52;;;;;;;1.58;1.00;;;;;;;;;;5083057;28;20134;-84
2023/03/01 09:08:19;;;;;;;1.35;1.00;;;;;;;;;;5086469;28;20387;-82
2023/03/01 09:10:44;;;;;;;2.35;1.02;;;;;;;;;;5082505;28;20024;-85
2023/03/01 09:13:10;;;;;;;2.10;0.98;;;;;;;;;;5084644;28;20489;-85
2023/03/01 09:15:39;;;;;;;1.42;0.85;;;;;;;;;;5082264;28;20104;-85
2023/03/01 09:18:05;;;;;;;0.85;0.65;;;;;;;;;;5083004;28;20036;-83
2023/03/01 09:20:32;;;;;;;1.25;0.82;;;;;;;;;;5089460;28;20582;-84
2023/03/01 09:22:58;;;;;;;0.40;0.40;;;;;;;;;;5084719;28;20026;-85
2023/03/01 09:25:24;;;;;;;0.93;0.75;;;;;;;;;;5082875;28;20028;-84
2023/03/01 09:27:53;;;;;;;0.22;0.22;;;;;;;;;;5086720;28;20024;-84
2023/03/01 09:30:19;;;;;;;2.33;1.30;;;;;;;;;;5076449;28;20032;-83
2023/03/01 09:32:44;;;;;;;1.27;1.13;;;;;;;;;;5085384;28;20035;-82
2023/03/01 09:35:11;;;;;;;0.98;0.60;;;;;;;;;;5086559;28;20506;-84
2023/03/01 09:37:37;;;;;;;0.82;0.82;;;;;;;;;;5083233;28;20078;-84
2023/03/01 09:40:05;;;;;;;1.20;0.90;;;;;;;;;;5085396;28;20103;-83
2023/03/01 09:42:34;;;;;;;0.50;0.50;;;;;;;;;;5080057;28;20064;-83
2023/03/01 09:45:38;;;;;;;0.90;0.63;;;;;;;;;;5081204;28;20074;-85
2023/03/01 09:48:08;;;;;;;1.00;0.75;;;;;;;;;;5081641;28;20029;-83
2023/03/01 09:50:38;;;;;;;1.15;0.65;;;;;;;;;;5082326;28;20035;-82
2023/03/01 09:53:12;;;;;;;0.75;0.75;;;;;;;;;;5085221;28;20028;-83
2023/03/01 09:55:38;;;;;;;0.57;0.47;;;;;;;;;;5084929;28;20058;-82
2023/03/01 09:58:22;;;;;;;2.30;1.08;;;;;;;;;;5091233;28;20020;-83
2023/03/01 10:00:49;;;;;;;0.70;0.57;;;;;;;;;;5087047;28;20031;-85
2023/03/01 10:03:55;;;;;;;0.70;0.70;;;;;;;;;;5082444;28;20024;-83
2023/03/01 10:06:23;;;;;;;1.63;1.13;;;;;;;;;;5087071;28;20075;-81
2023/03/01 10:09:00;;;;;;;1.35;1.23;;;;;;;;;;5082549;28;20050;-81
2023/03/01 10:11:32;;;;;;;1.50;0.70;;;;;;;;;;5083104;28;20099;-85
2023/03/01 10:14:21;;;;;;;3.92;1.83;;;;;;;;;;5089521;28;20028;-82
2023/03/01 10:17:02;;;;;;;1.58;1.10;;;;;;;;;;5086657;28;20032;-85
2023/03/01 10:19:33;;;;;;;2.70;1.08;;;;;;;;;;5086680;28;20463;-81
2023/03/01 10:22:28;;;;;;;1.48;1.13;;;;;;;;;;5089760;28;20131;-82
2023/03/01 10:24:59;;;;;;;1.70;0.85;;;;;;;;;;5086027;28;20035;-82
2023/03/01 10:27:34;;;;;;;0.85;0.73;;;;;;;;;;5079394;28;20168;-81
2023/03/01 10:30:12;;;;;;;1.27;1.15;;;;;;;;;;5087608;28;20019;-81
2023/03/01 10:32:38;;;;;;;1.15;0.70;;;;;;;;;;5086531;28;20044;-82
2023/03/01 10:35:28;;;;;;;1.35;0.90;;;;;;;;;;5085713;28;20034;-81
2023/03/01 10:38:07;;;;;;;2.53;1.05;;;;;;;;;;5087892;28;20149;-81
2023/03/01 10:40:35;;;;;;;2.03;1.20;;;;;;;;;;5082560;28;20460;-82
2023/03/01 10:43:04;;;;;;;3.13;1.55;;;;;;;;;;5084630;28;20020;-83
2023/03/01 10:45:29;;;;;;;0.70;0.70;;;;;;;;;;5082865;28;20414;-81
2023/03/01 10:48:16;;;;;;;1.98;1.30;;;;;;;;;;5087423;28;20027;-82
2023/03/01 10:50:46;;;;;;;2.63;1.00;;;;;;;;;;5084329;28;20365;-82
2023/03/01 10:53:26;;;;;;;0.80;0.80;;;;;;;;;;5086220;28;20024;-83
2023/03/01 10:56:04;;;;;;;2.28;1.30;;;;;;;;;;5078406;28;20384;-80
2023/03/01 10:58:30;;;;;;;1.75;0.90;;;;;;;;;;5088320;28;20032;-82
2023/03/01 11:00:55;;;;;;;3.28;1.58;;;;;;;;;;5082388;28;20559;-80
2023/03/01 11:03:33;;;;;;;3.35;1.42;;;;;;;;;;5087398;28;20031;-80
2023/03/01 11:06:13;;;;;;;1.13;1.02;;;;;;;;;;5107247;28;20081;-79
2023/03/01 11:08:44;;;;;;;1.33;1.10;;;;;;;;;;5083344;28;20055;-81
2023/03/01 11:11:42;;;;;;;1.23;0.77;;;;;;;;;;5083983;28;20384;-79
2023/03/01 11:14:37;;;;;;;0.82;0.70;;;;;;;;;;5062734;28;20815;-79
2023/03/01 11:17:26;;;;;;;1.55;1.25;;;;;;;;;;5081469;28;20150;-81
2023/03/01 11:20:13;;;;;;;2.77;1.27;;;;;;;;;;5082647;28;20568;-80
2023/03/01 11:22:49;;;;;;;0.73;0.70;;;;;;;;;;5083682;28;20025;-80
2023/03/01 11:25:16;;;;;;;2.25;1.02;;;;;;;;;;5105189;28;20479;-81
2023/03/01 11:27:44;;;;;;;3.55;1.23;;;;;;;;;;5088365;28;20047;-83
2023/03/01 11:30:21;;;;;;;2.15;1.02;;;;;;;;;;5086681;28;20471;-82
2023/03/01 11:33:05;;;;;;;1.67;1.30;;;;;;;;;;5082304;28;20036;-81
2023/03/01 11:35:35;;;;;;;2.35;1.40;;;;;;;;;;5083051;28;20080;-83
2023/03/01 11:38:33;;;;;;;2.00;1.08;;;;;;;;;;5088595;28;20104;-83
2023/03/01 11:41:07;;;;;;;1.85;1.23;;;;;;;;;;5077084;28;20043;-81
2023/03/01 11:43:58;;;;;;;1.90;1.50;;;;;;;;;;5089345;28;20546;-81
2023/03/01 11:46:26;;;;;;;1.67;1.33;;;;;;;;;;5106850;28;20111;-80
2023/03/01 11:48:51;;;;;;;1.92;1.27;;;;;;;;;;5087716;28;20081;-81
2023/03/01 11:51:49;;;;;;;2.28;1.00;;;;;;;;;;5089956;28;20464;-78
2023/03/01 11:54:36;;;;;;;1.95;1.27;;;;;;;;;;5081740;28;20040;-80
2023/03/01 11:57:28;;;;;;;1.73;0.98;;;;;;;;;;5106706;28;20380;-81
2023/03/01 12:00:06;;;;;;;1.83;1.42;;;;;;;;;;5084218;28;20032;-81
2023/03/01 12:03:06;;;;;;;1.83;1.38;;;;;;;;;;5084001;28;20853;-82
2023/03/01 12:05:58;;;;;;;3.08;1.73;;;;;;;;;;5098635;28;20031;-80
2023/03/01 12:08:28;;;;;;;1.45;1.00;;;;;;;;;;5088711;28;20039;-79
2023/03/01 12:11:03;;;;;;;0.95;0.73;;;;;;;;;;5104976;28;20040;-80
2023/03/01 12:14:09;;;;;;;1.00;0.90;;;;;;;;;;5086453;28;20032;-78
2023/03/01 12:16:56;;;;;;;1.17;1.05;;;;;;;;;;5083485;28;20032;-78
2023/03/01 12:19:47;;;;;;;3.45;1.83;;;;;;;;;;5079949;28;20024;-80
2023/03/01 12:22:37;;;;;;;1.85;1.30;;;;;;;;;;5083440;28;20110;-80
2023/03/01 12:25:26;;;;;;;1.67;1.13;;;;;;;;;;5080337;28;20349;-78
2023/03/01 12:28:13;;;;;;;1.40;1.30;;;;;;;;;;5084798;28;20035;-81
2023/03/01 12:30:53;;;;;;;1.63;1.20;;;;;;;;;;5085681;28;20411;-80
2023/03/01 12:33:40;;;;;;;1.85;1.13;;;;;;;;;;5083679;28;20518;-80
2023/03/01 12:36:25;;;;;;;1.83;1.20;;;;;;;;;;5089174;28;20043;-80
2023/03/01 12:39:22;;;;;;;1.50;0.98;;;;;;;;;;5086802;28;20036;-78
2023/03/01 12:42:02;;;;;;;1.48;0.95;;;;;;;;;;5084604;28;20020;-78
2023/03/01 12:44:33;;;;;;;1.48;0.93;;;;;;;;;;5102605;28;20063;-79
2023/03/01 12:47:18;;;;;;;1.30;0.98;;;;;;;;;;5087351;28;20032;-79
2023/03/01 12:49:54;;;;;;;1.63;1.15;;;;;;;;;;5085187;28;20078;-78
2023/03/01 12:52:38;;;;;;;0.95;0.82;;;;;;;;;;5088171;28;20108;-82
2023/03/01 12:55:17;;;;;;;1.40;1.05;;;;;;;;;;5089183;28;20726;-79
2023/03/01 12:57:57;;;;;;;2.47;1.40;;;;;;;;;;5084993;28;20476;-80
2023/03/01 13:00:45;;;;;;;2.30;1.20;;;;;;;;;;5087125;28;20063;-80
2023/03/01 13:03:14;;;;;;;1.20;0.88;;;;;;;;;;5081515;28;20054;-80
2023/03/01 13:06:10;;;;;;;2.45;1.10;;;;;;;;;;5084203;28;20048;-78
2023/03/01 13:09:00;;;;;;;2.17;1.65;;;;;;;;;;5082494;28;20028;-81
2023/03/01 13:11:25;;;;;;;2.53;1.17;;;;;;;;;;5102635;28;20036;-82
2023/03/01 13:13:54;;;;;;;0.85;0.63;;;;;;;;;;5083261;28;20024;-79
2023/03/01 13:16:36;;;;;;;1.45;0.90;;;;;;;;;;5082122;28;20025;-78
2023/03/01 13:19:08;;;;;;;0.88;0.73;;;;;;;;;;5085809;28;20491;-76
2023/03/01 13:21:33;;;;;;;0.60;0.60;;;;;;;;;;5082907;28;20028;-77
2023/03/01 13:23:59;;;;;;;1.88;0.82;;;;;;;;;;5086644;28;20426;-79
2023/03/01 13:26:24;;;;;;;1.17;0.93;;;;;;;;;;5085586;28;20495;-79
2023/03/01 13:28:52;;;;;;;1.15;1.00;;;;;;;;;;5088593;28;20035;-79
2023/03/01 13:31:20;;;;;;;2.42;1.33;;;;;;;;;;5092875;28;20499;-80
2023/03/01 13:33:49;;;;;;;1.02;0.77;;;;;;;;;;5091044;28;20514;-84
2023/03/01 13:36:30;;;;;;;1.88;1.25;;;;;;;;;;5088175;28;20566;-79
2023/03/01 13:39:28;;;;;;;1.73;0.90;;;;;;;;;;5086614;28;20034;-79
2023/03/01 13:41:59;;;;;;;1.77;0.95;;;;;;;;;;5091853;28;20028;-80
2023/03/01 13:44:35;;;;;;;2.50;1.65;;;;;;;;;;5085028;28;20078;-80
2023/03/01 13:47:17;;;;;;;2.47;1.30;;;;;;;;;;5108792;28;20032;-78
2023/03/01 13:49:59;;;;;;;2.10;1.58;;;;;;;;;;5090522;28;20027;-78
2023/03/01 13:52:39;;;;;;;2.25;1.65;;;;;;;;;;5087078;28;20050;-79
2023/03/01 13:55:29;;;;;;;2.95;1.63;;;;;;;;;;5090086;28;20024;-78
2023/03/01 13:57:59;;;;;;;2.13;1.33;;;;;;;;;;5091960;28;20056;-79
2023/03/01 14:00:26;;;;;;;3.78;1.75;;;;;;;;;;5107863;28;20032;-79
2023/03/01 14:03:15;;;;;;;1.23;1.02;;;;;;;;;;5081119;28;20067;-79
2023/03/01 14:05:44;;;;;;;2.10;1.40;;;;;;;;;;5083223;28;20369;-81
2023/03/01 14:08:19;;;;;;;2.13;1.37;;;;;;;;;;5085602;28;20038;-79
2023/03/01 14:10:53;;;;;;;4.63;1.77;;;;;;;;;;5082638;28;20021;-81
2023/03/01 14:14:02;;;;;;;2.70;1.45;;;;;;;;;;5086939;28;20468;-79
2023/03/01 14:16:48;;;;;;;1.02;0.90;;;;;;;;;;5084814;28;20028;-79
2023/03/01 14:19:16;;;;;;;1.08;0.90;;;;;;;;;;5083545;28;20027;-79
2023/03/01 14:21:42;;;;;;;3.00;1.77;;;;;;;;;;5083976;28;20020;-81
2023/03/01 14:24:17;;;;;;;2.10;1.30;;;;;;;;;;5084601;28;20104;-83
2023/03/01 14:26:43;;;;;;;2.70;1.48;;;;;;;;;;5087236;28;20057;-78
2023/03/01 14:29:26;;;;;;;7.03;1.85;;;;;;;;;;5088703;28;20074;-79
2023/03/01 14:31:52;;;;;;;1.27;0.98;;;;;;;;;;5085639;28;20048;-79
2023/03/01 14:34:23;;;;;;;1.23;1.08;;;;;;;;;;5090162;28;20380;-77
2023/03/01 14:36:49;;;;;;;3.03;1.63;;;;;;;;;;5085717;28;20031;-80
2023/03/01 14:39:26;;;;;;;1.73;1.10;;;;;;;;;;5079910;28;20035;-80
2023/03/01 14:41:52;;;;;;;2.13;1.27;;;;;;;;;;5083650;28;20055;-80
2023/03/01 14:44:24;;;;;;;2.80;1.67;;;;;;;;;;5081475;28;20154;-77
2023/03/01 14:46:54;;;;;;;2.67;2.05;;;;;;;;;;5086578;28;20071;-80
2023/03/01 14:49:24;;;;;;;1.42;1.30;;;;;;;;;;5087214;28;20029;-78
2023/03/01 14:52:03;;;;;;;3.05;1.52;;;;;;;;;;5085095;28;20036;-79
2023/03/01 14:54:43;;;;;;;4.75;2.22;;;;;;;;;;5090826;28;20051;-79
2023/03/01 14:57:18;;;;;;;1.63;1.02;;;;;;;;;;5089406;28;20055;-78
2023/03/01 14:59:44;;;;;;;1.88;1.55;;;;;;;;;;5086856;28;20052;-80
2023/03/01 15:02:19;;;;;;;2.97;1.92;;;;;;;;;;5090334;28;20028;-79
2023/03/01 15:04:51;;;;;;;3.72;1.98;;;;;;;;;;5089480;28;20080;-79
2023/03/01 15:07:17;;;;;;;4.18;1.48;;;;;;;;;;5077661;28;20029;-78